sensor_id;sensor_type;location;lat;lon;timestamp;P1;durP1;ratioP1;P2;durP2;ratioP2
11646;SDS011;5880;52.342;9.662;2023-02-28T00:00:49;5.03;;;3.67;;
11646;SDS011;5880;52.342;9.662;2023-02-28T00:03:15;5.10;;;3.60;;
11646;SDS011;5880;52.342;9.662;2023-02-28T00:05:41;4.77;;;3.57;;
11646;SDS011;5880;52.342;9.662;2023-02-28T00:08:07;6.47;;;3.63;;
11646;SDS011;5880;52.342;9.662;2023-02-28T00:10:33;4.80;;;3.60;;
11646;SDS011;5880;52.342;9.662;2023-02-28T00:13:00;4.30;;;3.30;;
11646;SDS011;5880;52.342;9.662;2023-02-28T00:15:31;4.77;;;3.53;;
11646;SDS011;5880;52.342;9.662;2023-02-28T00:17:58;3.53;;;3.20;;
11646;SDS011;5880;52.342;9.662;2023-02-28T00:20:24;7.40;;;4.57;;
11646;SDS011;5880;52.342;9.662;2023-02-28T00:22:50;4.00;;;3.23;;
11646;SDS011;5880;52.342;9.662;2023-02-28T00:25:19;4.93;;;3.30;;
11646;SDS011;5880;52.342;9.662;2023-02-28T00:27:48;4.77;;;3.70;;
11646;SDS011;5880;52.342;9.662;2023-02-28T00:30:16;4.20;;;3.67;;
11646;SDS011;5880;52.342;9.662;2023-02-28T00:32:44;4.97;;;3.40;;
11646;SDS011;5880;52.342;9.662;2023-02-28T00:35:11;6.37;;;3.47;;
11646;SDS011;5880;52.342;9.662;2023-02-28T00:37:37;5.23;;;3.40;;
11646;SDS011;5880;52.342;9.662;2023-02-28T00:40:03;6.53;;;3.83;;
11646;SDS011;5880;52.342;9.662;2023-02-28T00:42:31;4.00;;;3.17;;
11646;SDS011;5880;52.342;9.662;2023-02-28T00:44:57;5.67;;;3.50;;
11646;SDS011;5880;52.342;9.662;2023-02-28T00:47:23;4.80;;;3.60;;
11646;SDS011;5880;52.342;9.662;2023-02-28T00:49:48;3.77;;;3.37;;
11646;SDS011;5880;52.342;9.662;2023-02-28T00:52:14;5.27;;;3.60;;
11646;SDS011;5880;52.342;9.662;2023-02-28T00:54:40;3.97;;;3.20;;
11646;SDS011;5880;52.342;9.662;2023-02-28T00:57:05;5.40;;;3.67;;
11646;SDS011;5880;52.342;9.662;2023-02-28T00:59:31;4.83;;;3.30;;
11646;SDS011;5880;52.342;9.662;2023-02-28T01:01:57;3.60;;;3.03;;
11646;SDS011;5880;52.342;9.662;2023-02-28T01:04:22;5.57;;;3.27;;
11646;SDS011;5880;52.342;9.662;2023-02-28T01:06:48;5.53;;;3.10;;
11646;SDS011;5880;52.342;9.662;2023-02-28T01:09:14;4.33;;;3.10;;
11646;SDS011;5880;52.342;9.662;2023-02-28T01:11:39;4.77;;;3.20;;
11646;SDS011;5880;52.342;9.662;2023-02-28T01:14:10;4.27;;;3.23;;
11646;SDS011;5880;52.342;9.662;2023-02-28T01:16:41;4.80;;;3.40;;
11646;SDS011;5880;52.342;9.662;2023-02-28T01:19:07;5.90;;;3.70;;
11646;SDS011;5880;52.342;9.662;2023-02-28T01:21:33;4.27;;;2.87;;
11646;SDS011;5880;52.342;9.662;2023-02-28T01:24:00;5.07;;;3.43;;
11646;SDS011;5880;52.342;9.662;2023-02-28T01:26:26;3.90;;;2.93;;
11646;SDS011;5880;52.342;9.662;2023-02-28T01:28:52;4.90;;;3.20;;
11646;SDS011;5880;52.342;9.662;2023-02-28T01:31:19;3.10;;;2.80;;
11646;SDS011;5880;52.342;9.662;2023-02-28T01:33:46;4.57;;;3.20;;
11646;SDS011;5880;52.342;9.662;2023-02-28T01:36:13;3.77;;;2.93;;
11646;SDS011;5880;52.342;9.662;2023-02-28T01:38:42;3.43;;;2.90;;
11646;SDS011;5880;52.342;9.662;2023-02-28T01:41:08;4.67;;;3.10;;
11646;SDS011;5880;52.342;9.662;2023-02-28T01:46:13;4.00;;;2.73;;
11646;SDS011;5880;52.342;9.662;2023-02-28T01:48:41;3.20;;;2.83;;
11646;SDS011;5880;52.342;9.662;2023-02-28T01:51:25;3.83;;;3.13;;
11646;SDS011;5880;52.342;9.662;2023-02-28T01:54:11;4.33;;;2.70;;
11646;SDS011;5880;52.342;9.662;2023-02-28T01:56:50;4.00;;;3.10;;
11646;SDS011;5880;52.342;9.662;2023-02-28T01:59:31;4.07;;;3.10;;
11646;SDS011;5880;52.342;9.662;2023-02-28T02:02:21;4.20;;;2.90;;
11646;SDS011;5880;52.342;9.662;2023-02-28T02:04:56;3.97;;;2.90;;
11646;SDS011;5880;52.342;9.662;2023-02-28T02:07:29;5.57;;;2.87;;
11646;SDS011;5880;52.342;9.662;2023-02-28T02:10:03;3.40;;;2.70;;
11646;SDS011;5880;52.342;9.662;2023-02-28T02:12:55;3.47;;;2.83;;
11646;SDS011;5880;52.342;9.662;2023-02-28T02:15:59;3.07;;;2.70;;
11646;SDS011;5880;52.342;9.662;2023-02-28T02:19:07;3.73;;;2.93;;
11646;SDS011;5880;52.342;9.662;2023-02-28T02:31:17;2.77;;;2.50;;
11646;SDS011;5880;52.342;9.662;2023-02-28T02:34:29;3.27;;;2.60;;
11646;SDS011;5880;52.342;9.662;2023-02-28T02:37:17;3.60;;;2.77;;
11646;SDS011;5880;52.342;9.662;2023-02-28T02:40:35;4.17;;;2.57;;
11646;SDS011;5880;52.342;9.662;2023-02-28T02:46:20;3.37;;;2.37;;
11646;SDS011;5880;52.342;9.662;2023-02-28T02:48:51;2.27;;;2.07;;
11646;SDS011;5880;52.342;9.662;2023-02-28T02:51:22;3.80;;;2.70;;
11646;SDS011;5880;52.342;9.662;2023-02-28T02:53:57;3.10;;;2.43;;
11646;SDS011;5880;52.342;9.662;2023-02-28T02:56:41;3.07;;;2.57;;
11646;SDS011;5880;52.342;9.662;2023-02-28T02:59:12;3.30;;;2.60;;
11646;SDS011;5880;52.342;9.662;2023-02-28T03:01:46;4.00;;;2.90;;
11646;SDS011;5880;52.342;9.662;2023-02-28T03:04:19;3.70;;;2.67;;
11646;SDS011;5880;52.342;9.662;2023-02-28T03:06:48;3.57;;;2.90;;
11646;SDS011;5880;52.342;9.662;2023-02-28T03:09:19;3.77;;;2.17;;
11646;SDS011;5880;52.342;9.662;2023-02-28T03:11:51;3.60;;;2.47;;
11646;SDS011;5880;52.342;9.662;2023-02-28T03:20:55;2.33;;;2.13;;
11646;SDS011;5880;52.342;9.662;2023-02-28T03:26:32;2.83;;;2.43;;
11646;SDS011;5880;52.342;9.662;2023-02-28T03:29:15;3.00;;;2.60;;
11646;SDS011;5880;52.342;9.662;2023-02-28T03:31:45;4.80;;;2.57;;
11646;SDS011;5880;52.342;9.662;2023-02-28T03:34:23;3.83;;;2.53;;
11646;SDS011;5880;52.342;9.662;2023-02-28T03:36:59;3.53;;;2.67;;
11646;SDS011;5880;52.342;9.662;2023-02-28T03:39:53;3.10;;;2.60;;
11646;SDS011;5880;52.342;9.662;2023-02-28T03:42:31;2.73;;;2.47;;
11646;SDS011;5880;52.342;9.662;2023-02-28T03:45:05;3.77;;;2.73;;
11646;SDS011;5880;52.342;9.662;2023-02-28T03:47:43;3.33;;;2.47;;
11646;SDS011;5880;52.342;9.662;2023-02-28T03:50:22;2.97;;;2.63;;
11646;SDS011;5880;52.342;9.662;2023-02-28T03:53:06;3.77;;;2.50;;
11646;SDS011;5880;52.342;9.662;2023-02-28T03:55:54;3.20;;;2.50;;
11646;SDS011;5880;52.342;9.662;2023-02-28T03:58:33;2.80;;;2.33;;
11646;SDS011;5880;52.342;9.662;2023-02-28T04:01:16;2.90;;;2.60;;
11646;SDS011;5880;52.342;9.662;2023-02-28T04:03:50;3.23;;;2.30;;
11646;SDS011;5880;52.342;9.662;2023-02-28T04:06:18;3.53;;;2.20;;
11646;SDS011;5880;52.342;9.662;2023-02-28T04:08:46;3.13;;;2.27;;
11646;SDS011;5880;52.342;9.662;2023-02-28T04:13:48;3.37;;;2.17;;
11646;SDS011;5880;52.342;9.662;2023-02-28T04:16:14;3.30;;;2.33;;
11646;SDS011;5880;52.342;9.662;2023-02-28T04:18:41;2.70;;;2.37;;
11646;SDS011;5880;52.342;9.662;2023-02-28T04:21:08;3.50;;;2.43;;
11646;SDS011;5880;52.342;9.662;2023-02-28T04:23:34;2.77;;;2.20;;
11646;SDS011;5880;52.342;9.662;2023-02-28T04:26:00;4.13;;;2.60;;
11646;SDS011;5880;52.342;9.662;2023-02-28T04:28:26;2.93;;;2.40;;
11646;SDS011;5880;52.342;9.662;2023-02-28T04:30:58;3.50;;;2.50;;
11646;SDS011;5880;52.342;9.662;2023-02-28T04:33:27;3.03;;;2.30;;
11646;SDS011;5880;52.342;9.662;2023-02-28T04:36:02;4.00;;;2.50;;
11646;SDS011;5880;52.342;9.662;2023-02-28T04:38:32;3.30;;;2.60;;
11646;SDS011;5880;52.342;9.662;2023-02-28T04:41:00;3.57;;;2.60;;
11646;SDS011;5880;52.342;9.662;2023-02-28T04:43:27;4.30;;;2.70;;
11646;SDS011;5880;52.342;9.662;2023-02-28T04:45:54;3.30;;;2.60;;
11646;SDS011;5880;52.342;9.662;2023-02-28T04:48:24;3.13;;;2.60;;
11646;SDS011;5880;52.342;9.662;2023-02-28T04:50:53;2.70;;;2.50;;
11646;SDS011;5880;52.342;9.662;2023-02-28T04:53:19;3.00;;;2.60;;
11646;SDS011;5880;52.342;9.662;2023-02-28T04:55:46;4.00;;;2.80;;
11646;SDS011;5880;52.342;9.662;2023-02-28T04:58:12;3.20;;;2.67;;
11646;SDS011;5880;52.342;9.662;2023-02-28T05:00:38;2.87;;;2.57;;
11646;SDS011;5880;52.342;9.662;2023-02-28T05:03:04;4.10;;;2.67;;
11646;SDS011;5880;52.342;9.662;2023-02-28T05:05:30;3.00;;;2.50;;
11646;SDS011;5880;52.342;9.662;2023-02-28T05:07:55;2.43;;;2.23;;
11646;SDS011;5880;52.342;9.662;2023-02-28T05:10:22;4.87;;;2.87;;
11646;SDS011;5880;52.342;9.662;2023-02-28T05:12:48;2.87;;;2.53;;
11646;SDS011;5880;52.342;9.662;2023-02-28T05:15:14;3.03;;;2.60;;
11646;SDS011;5880;52.342;9.662;2023-02-28T05:17:41;3.93;;;2.60;;
11646;SDS011;5880;52.342;9.662;2023-02-28T05:20:08;4.33;;;2.97;;
11646;SDS011;5880;52.342;9.662;2023-02-28T05:22:35;3.03;;;2.43;;
11646;SDS011;5880;52.342;9.662;2023-02-28T05:25:06;3.27;;;2.77;;
11646;SDS011;5880;52.342;9.662;2023-02-28T05:27:37;2.83;;;2.50;;
11646;SDS011;5880;52.342;9.662;2023-02-28T05:30:02;3.60;;;2.97;;
11646;SDS011;5880;52.342;9.662;2023-02-28T05:32:30;4.27;;;3.07;;
11646;SDS011;5880;52.342;9.662;2023-02-28T05:34:56;3.63;;;2.87;;
11646;SDS011;5880;52.342;9.662;2023-02-28T05:37:22;3.43;;;2.60;;
11646;SDS011;5880;52.342;9.662;2023-02-28T05:39:47;3.43;;;2.67;;
11646;SDS011;5880;52.342;9.662;2023-02-28T05:42:13;5.70;;;3.17;;
11646;SDS011;5880;52.342;9.662;2023-02-28T05:44:39;3.50;;;3.00;;
11646;SDS011;5880;52.342;9.662;2023-02-28T05:47:04;4.47;;;3.40;;
11646;SDS011;5880;52.342;9.662;2023-02-28T05:49:30;4.67;;;3.30;;
11646;SDS011;5880;52.342;9.662;2023-02-28T05:51:56;5.37;;;3.40;;
11646;SDS011;5880;52.342;9.662;2023-02-28T05:54:21;4.20;;;2.90;;
11646;SDS011;5880;52.342;9.662;2023-02-28T05:56:47;4.00;;;3.03;;
11646;SDS011;5880;52.342;9.662;2023-02-28T05:59:13;3.80;;;2.90;;
11646;SDS011;5880;52.342;9.662;2023-02-28T06:01:39;4.50;;;3.03;;
11646;SDS011;5880;52.342;9.662;2023-02-28T06:04:13;2.90;;;2.60;;
11646;SDS011;5880;52.342;9.662;2023-02-28T06:06:44;3.17;;;2.47;;
11646;SDS011;5880;52.342;9.662;2023-02-28T06:09:10;2.97;;;2.67;;
11646;SDS011;5880;52.342;9.662;2023-02-28T06:11:36;4.40;;;3.00;;
11646;SDS011;5880;52.342;9.662;2023-02-28T06:14:03;6.07;;;3.00;;
11646;SDS011;5880;52.342;9.662;2023-02-28T06:16:31;3.97;;;2.73;;
11646;SDS011;5880;52.342;9.662;2023-02-28T06:18:59;4.10;;;2.67;;
11646;SDS011;5880;52.342;9.662;2023-02-28T06:21:28;2.90;;;2.50;;
11646;SDS011;5880;52.342;9.662;2023-02-28T06:23:55;2.70;;;2.13;;
11646;SDS011;5880;52.342;9.662;2023-02-28T06:26:22;3.50;;;2.50;;
11646;SDS011;5880;52.342;9.662;2023-02-28T06:28:48;3.33;;;2.60;;
11646;SDS011;5880;52.342;9.662;2023-02-28T06:31:15;3.00;;;2.13;;
11646;SDS011;5880;52.342;9.662;2023-02-28T06:33:43;2.87;;;2.30;;
11646;SDS011;5880;52.342;9.662;2023-02-28T06:36:10;2.53;;;2.30;;
11646;SDS011;5880;52.342;9.662;2023-02-28T06:38:38;3.10;;;2.30;;
11646;SDS011;5880;52.342;9.662;2023-02-28T06:41:05;5.47;;;2.33;;
11646;SDS011;5880;52.342;9.662;2023-02-28T06:43:32;2.73;;;2.20;;
11646;SDS011;5880;52.342;9.662;2023-02-28T06:46:05;4.47;;;2.40;;
11646;SDS011;5880;52.342;9.662;2023-02-28T06:48:33;4.17;;;2.20;;
11646;SDS011;5880;52.342;9.662;2023-02-28T06:51:07;3.80;;;2.47;;
11646;SDS011;5880;52.342;9.662;2023-02-28T06:53:39;2.33;;;2.10;;
11646;SDS011;5880;52.342;9.662;2023-02-28T06:56:06;3.00;;;2.27;;
11646;SDS011;5880;52.342;9.662;2023-02-28T06:58:34;2.20;;;2.00;;
11646;SDS011;5880;52.342;9.662;2023-02-28T07:01:00;2.87;;;2.30;;
11646;SDS011;5880;52.342;9.662;2023-02-28T07:03:26;3.93;;;2.47;;
11646;SDS011;5880;52.342;9.662;2023-02-28T07:05:52;4.67;;;3.27;;
11646;SDS011;5880;52.342;9.662;2023-02-28T07:08:18;4.50;;;3.50;;
11646;SDS011;5880;52.342;9.662;2023-02-28T07:10:43;4.90;;;3.67;;
11646;SDS011;5880;52.342;9.662;2023-02-28T07:13:09;3.87;;;3.50;;
11646;SDS011;5880;52.342;9.662;2023-02-28T07:15:36;5.60;;;4.37;;
11646;SDS011;5880;52.342;9.662;2023-02-28T07:18:02;6.03;;;4.30;;
11646;SDS011;5880;52.342;9.662;2023-02-28T07:20:28;6.07;;;4.60;;
11646;SDS011;5880;52.342;9.662;2023-02-28T07:22:54;5.80;;;4.10;;
11646;SDS011;5880;52.342;9.662;2023-02-28T07:25:30;6.13;;;4.30;;
11646;SDS011;5880;52.342;9.662;2023-02-28T07:27:56;5.07;;;3.93;;
11646;SDS011;5880;52.342;9.662;2023-02-28T07:30:22;5.50;;;3.67;;
11646;SDS011;5880;52.342;9.662;2023-02-28T07:32:47;5.60;;;4.20;;
11646;SDS011;5880;52.342;9.662;2023-02-28T07:35:13;5.20;;;4.50;;
11646;SDS011;5880;52.342;9.662;2023-02-28T07:37:40;6.37;;;4.33;;
11646;SDS011;5880;52.342;9.662;2023-02-28T07:40:09;8.23;;;5.00;;
11646;SDS011;5880;52.342;9.662;2023-02-28T07:42:37;6.03;;;4.23;;
11646;SDS011;5880;52.342;9.662;2023-02-28T07:45:05;6.47;;;4.30;;
11646;SDS011;5880;52.342;9.662;2023-02-28T07:47:33;5.70;;;4.70;;
11646;SDS011;5880;52.342;9.662;2023-02-28T07:49:59;4.80;;;3.87;;
11646;SDS011;5880;52.342;9.662;2023-02-28T07:52:25;4.60;;;4.20;;
11646;SDS011;5880;52.342;9.662;2023-02-28T07:54:51;5.57;;;4.23;;
11646;SDS011;5880;52.342;9.662;2023-02-28T07:57:16;5.17;;;4.17;;
11646;SDS011;5880;52.342;9.662;2023-02-28T07:59:42;6.67;;;4.47;;
11646;SDS011;5880;52.342;9.662;2023-02-28T08:02:15;5.17;;;4.30;;
11646;SDS011;5880;52.342;9.662;2023-02-28T08:04:42;4.77;;;3.87;;
11646;SDS011;5880;52.342;9.662;2023-02-28T08:07:08;5.03;;;4.10;;
11646;SDS011;5880;52.342;9.662;2023-02-28T08:09:38;4.97;;;3.93;;
11646;SDS011;5880;52.342;9.662;2023-02-28T08:12:08;5.13;;;4.17;;
11646;SDS011;5880;52.342;9.662;2023-02-28T08:14:35;6.10;;;4.53;;
11646;SDS011;5880;52.342;9.662;2023-02-28T08:17:02;6.97;;;4.70;;
11646;SDS011;5880;52.342;9.662;2023-02-28T08:19:29;7.50;;;4.53;;
11646;SDS011;5880;52.342;9.662;2023-02-28T08:21:55;5.13;;;4.37;;
11646;SDS011;5880;52.342;9.662;2023-02-28T08:24:21;7.97;;;4.87;;
11646;SDS011;5880;52.342;9.662;2023-02-28T08:26:47;5.90;;;4.10;;
11646;SDS011;5880;52.342;9.662;2023-02-28T08:29:14;5.53;;;4.30;;
11646;SDS011;5880;52.342;9.662;2023-02-28T08:31:40;8.43;;;4.80;;
11646;SDS011;5880;52.342;9.662;2023-02-28T08:34:07;6.07;;;4.40;;
11646;SDS011;5880;52.342;9.662;2023-02-28T08:36:36;7.47;;;4.60;;
11646;SDS011;5880;52.342;9.662;2023-02-28T08:39:02;5.50;;;4.50;;
11646;SDS011;5880;52.342;9.662;2023-02-28T08:41:28;7.93;;;5.63;;
11646;SDS011;5880;52.342;9.662;2023-02-28T08:43:54;7.00;;;5.00;;
11646;SDS011;5880;52.342;9.662;2023-02-28T08:46:20;6.90;;;5.13;;
11646;SDS011;5880;52.342;9.662;2023-02-28T08:48:46;7.67;;;4.80;;
11646;SDS011;5880;52.342;9.662;2023-02-28T08:51:15;6.87;;;5.00;;
11646;SDS011;5880;52.342;9.662;2023-02-28T08:53:46;9.77;;;4.70;;
11646;SDS011;5880;52.342;9.662;2023-02-28T08:56:14;6.63;;;4.37;;
11646;SDS011;5880;52.342;9.662;2023-02-28T08:58:44;7.30;;;4.47;;
11646;SDS011;5880;52.342;9.662;2023-02-28T09:01:13;5.97;;;3.90;;
11646;SDS011;5880;52.342;9.662;2023-02-28T09:03:43;6.40;;;3.97;;
11646;SDS011;5880;52.342;9.662;2023-02-28T09:06:11;5.73;;;3.70;;
11646;SDS011;5880;52.342;9.662;2023-02-28T09:08:38;5.03;;;3.30;;
11646;SDS011;5880;52.342;9.662;2023-02-28T09:11:04;6.33;;;3.93;;
11646;SDS011;5880;52.342;9.662;2023-02-28T09:13:30;3.93;;;3.20;;
11646;SDS011;5880;52.342;9.662;2023-02-28T09:15:57;3.60;;;3.00;;
11646;SDS011;5880;52.342;9.662;2023-02-28T09:18:25;5.70;;;4.10;;
11646;SDS011;5880;52.342;9.662;2023-02-28T09:20:51;5.70;;;3.60;;
11646;SDS011;5880;52.342;9.662;2023-02-28T09:23:17;6.23;;;4.10;;
11646;SDS011;5880;52.342;9.662;2023-02-28T09:25:50;7.47;;;4.70;;
11646;SDS011;5880;52.342;9.662;2023-02-28T09:28:19;7.47;;;4.20;;
11646;SDS011;5880;52.342;9.662;2023-02-28T09:30:47;5.30;;;3.70;;
11646;SDS011;5880;52.342;9.662;2023-02-28T09:33:19;4.83;;;3.47;;
11646;SDS011;5880;52.342;9.662;2023-02-28T09:35:47;5.53;;;3.10;;
11646;SDS011;5880;52.342;9.662;2023-02-28T09:38:22;4.40;;;3.17;;
11646;SDS011;5880;52.342;9.662;2023-02-28T09:43:50;5.23;;;2.87;;
11646;SDS011;5880;52.342;9.662;2023-02-28T09:49:08;2.50;;;2.03;;
11646;SDS011;5880;52.342;9.662;2023-02-28T09:51:44;2.70;;;2.10;;
11646;SDS011;5880;52.342;9.662;2023-02-28T09:54:34;3.27;;;2.37;;
11646;SDS011;5880;52.342;9.662;2023-02-28T09:57:23;3.83;;;2.53;;
11646;SDS011;5880;52.342;9.662;2023-02-28T10:08:53;3.47;;;2.50;;
11646;SDS011;5880;52.342;9.662;2023-02-28T10:11:28;4.30;;;2.87;;
11646;SDS011;5880;52.342;9.662;2023-02-28T10:14:21;3.50;;;2.90;;
11646;SDS011;5880;52.342;9.662;2023-02-28T10:22:20;4.63;;;2.53;;
11646;SDS011;5880;52.342;9.662;2023-02-28T10:25:19;3.77;;;2.70;;
11646;SDS011;5880;52.342;9.662;2023-02-28T10:27:49;3.50;;;2.40;;
11646;SDS011;5880;52.342;9.662;2023-02-28T10:30:20;3.37;;;2.00;;
11646;SDS011;5880;52.342;9.662;2023-02-28T10:32:48;2.70;;;2.17;;
11646;SDS011;5880;52.342;9.662;2023-02-28T10:35:19;2.93;;;2.00;;
11646;SDS011;5880;52.342;9.662;2023-02-28T10:37:49;3.57;;;1.80;;
11646;SDS011;5880;52.342;9.662;2023-02-28T10:42:57;2.20;;;1.70;;
11646;SDS011;5880;52.342;9.662;2023-02-28T10:45:29;2.13;;;1.70;;
11646;SDS011;5880;52.342;9.662;2023-02-28T10:47:58;3.10;;;1.70;;
11646;SDS011;5880;52.342;9.662;2023-02-28T10:56:14;2.93;;;1.67;;
11646;SDS011;5880;52.342;9.662;2023-02-28T11:03:55;3.17;;;1.80;;
11646;SDS011;5880;52.342;9.662;2023-02-28T11:06:23;2.13;;;1.70;;
11646;SDS011;5880;52.342;9.662;2023-02-28T11:08:59;2.30;;;1.60;;
11646;SDS011;5880;52.342;9.662;2023-02-28T11:11:40;2.37;;;1.60;;
11646;SDS011;5880;52.342;9.662;2023-02-28T11:14:27;1.80;;;1.47;;
11646;SDS011;5880;52.342;9.662;2023-02-28T11:19:56;1.40;;;1.10;;
11646;SDS011;5880;52.342;9.662;2023-02-28T11:22:43;3.07;;;1.80;;
11646;SDS011;5880;52.342;9.662;2023-02-28T11:25:22;2.87;;;1.40;;
11646;SDS011;5880;52.342;9.662;2023-02-28T11:28:02;2.40;;;1.20;;
11646;SDS011;5880;52.342;9.662;2023-02-28T11:30:33;4.70;;;1.60;;
11646;SDS011;5880;52.342;9.662;2023-02-28T11:33:28;1.87;;;1.30;;
11646;SDS011;5880;52.342;9.662;2023-02-28T11:35:59;2.13;;;1.50;;
11646;SDS011;5880;52.342;9.662;2023-02-28T11:38:34;1.50;;;1.40;;
11646;SDS011;5880;52.342;9.662;2023-02-28T11:41:05;3.27;;;1.70;;
11646;SDS011;5880;52.342;9.662;2023-02-28T11:47:12;1.70;;;1.60;;
11646;SDS011;5880;52.342;9.662;2023-02-28T11:50:03;3.27;;;1.70;;
11646;SDS011;5880;52.342;9.662;2023-02-28T11:52:56;2.10;;;1.50;;
11646;SDS011;5880;52.342;9.662;2023-02-28T12:10:19;2.63;;;1.77;;
11646;SDS011;5880;52.342;9.662;2023-02-28T12:21:18;1.60;;;1.50;;
11646;SDS011;5880;52.342;9.662;2023-02-28T12:27:19;3.10;;;1.90;;
11646;SDS011;5880;52.342;9.662;2023-02-28T12:29:50;5.73;;;2.27;;
11646;SDS011;5880;52.342;9.662;2023-02-28T12:32:26;3.20;;;1.87;;
11646;SDS011;5880;52.342;9.662;2023-02-28T12:35:01;2.50;;;1.90;;
11646;SDS011;5880;52.342;9.662;2023-02-28T12:40:11;3.23;;;2.13;;
11646;SDS011;5880;52.342;9.662;2023-02-28T12:42:45;3.03;;;2.10;;
11646;SDS011;5880;52.342;9.662;2023-02-28T12:45:22;2.70;;;2.30;;
11646;SDS011;5880;52.342;9.662;2023-02-28T12:48:26;2.63;;;2.10;;
11646;SDS011;5880;52.342;9.662;2023-02-28T12:51:15;2.20;;;1.87;;
11646;SDS011;5880;52.342;9.662;2023-02-28T12:56:43;3.00;;;1.87;;
11646;SDS011;5880;52.342;9.662;2023-02-28T12:59:38;2.80;;;2.23;;
11646;SDS011;5880;52.342;9.662;2023-02-28T13:08:41;4.63;;;2.20;;
11646;SDS011;5880;52.342;9.662;2023-02-28T13:11:43;4.67;;;2.40;;
11646;SDS011;5880;52.342;9.662;2023-02-28T13:14:22;3.87;;;2.13;;
11646;SDS011;5880;52.342;9.662;2023-02-28T13:19:32;4.37;;;2.30;;
11646;SDS011;5880;52.342;9.662;2023-02-28T13:22:01;4.27;;;2.80;;
11646;SDS011;5880;52.342;9.662;2023-02-28T13:29:34;4.63;;;2.20;;
11646;SDS011;5880;52.342;9.662;2023-02-28T13:34:36;4.00;;;2.40;;
11646;SDS011;5880;52.342;9.662;2023-02-28T13:47:32;2.47;;;2.20;;
11646;SDS011;5880;52.342;9.662;2023-02-28T13:55:45;3.30;;;2.50;;
11646;SDS011;5880;52.342;9.662;2023-02-28T13:58:53;3.33;;;2.23;;
11646;SDS011;5880;52.342;9.662;2023-02-28T14:01:44;2.30;;;1.90;;
11646;SDS011;5880;52.342;9.662;2023-02-28T14:04:28;3.33;;;2.20;;
11646;SDS011;5880;52.342;9.662;2023-02-28T14:07:20;5.00;;;2.20;;
11646;SDS011;5880;52.342;9.662;2023-02-28T14:09:57;2.43;;;2.00;;
11646;SDS011;5880;52.342;9.662;2023-02-28T14:15:38;2.97;;;2.10;;
11646;SDS011;5880;52.342;9.662;2023-02-28T14:18:23;3.80;;;2.33;;
11646;SDS011;5880;52.342;9.662;2023-02-28T14:21:09;5.07;;;2.40;;
11646;SDS011;5880;52.342;9.662;2023-02-28T14:32:29;3.50;;;2.40;;
11646;SDS011;5880;52.342;9.662;2023-02-28T14:38:26;2.40;;;2.20;;
11646;SDS011;5880;52.342;9.662;2023-02-28T14:40:57;3.87;;;2.30;;
11646;SDS011;5880;52.342;9.662;2023-02-28T14:43:28;3.43;;;2.40;;
11646;SDS011;5880;52.342;9.662;2023-02-28T14:45:55;3.23;;;2.20;;
11646;SDS011;5880;52.342;9.662;2023-02-28T14:48:25;3.80;;;2.23;;
11646;SDS011;5880;52.342;9.662;2023-02-28T14:50:53;3.13;;;2.13;;
11646;SDS011;5880;52.342;9.662;2023-02-28T14:53:22;4.33;;;2.77;;
11646;SDS011;5880;52.342;9.662;2023-02-28T14:55:52;3.53;;;2.33;;
11646;SDS011;5880;52.342;9.662;2023-02-28T15:00:54;3.27;;;2.10;;
11646;SDS011;5880;52.342;9.662;2023-02-28T15:03:28;3.13;;;2.17;;
11646;SDS011;5880;52.342;9.662;2023-02-28T15:06:02;4.37;;;2.70;;
11646;SDS011;5880;52.342;9.662;2023-02-28T15:08:36;3.47;;;2.37;;
11646;SDS011;5880;52.342;9.662;2023-02-28T15:11:07;3.20;;;2.53;;
11646;SDS011;5880;52.342;9.662;2023-02-28T15:13:53;2.53;;;2.27;;
11646;SDS011;5880;52.342;9.662;2023-02-28T15:16:36;3.37;;;2.30;;
11646;SDS011;5880;52.342;9.662;2023-02-28T15:21:50;4.57;;;2.40;;
11646;SDS011;5880;52.342;9.662;2023-02-28T15:24:30;3.20;;;2.53;;
11646;SDS011;5880;52.342;9.662;2023-02-28T15:27:07;2.83;;;2.33;;
11646;SDS011;5880;52.342;9.662;2023-02-28T15:30:08;3.10;;;2.30;;
11646;SDS011;5880;52.342;9.662;2023-02-28T15:33:15;3.23;;;2.40;;
11646;SDS011;5880;52.342;9.662;2023-02-28T15:35:47;3.37;;;2.17;;
11646;SDS011;5880;52.342;9.662;2023-02-28T15:38:18;4.10;;;2.30;;
11646;SDS011;5880;52.342;9.662;2023-02-28T15:40:56;2.47;;;2.20;;
11646;SDS011;5880;52.342;9.662;2023-02-28T15:43:24;2.50;;;2.20;;
11646;SDS011;5880;52.342;9.662;2023-02-28T15:45:51;2.97;;;2.30;;
11646;SDS011;5880;52.342;9.662;2023-02-28T15:48:24;3.67;;;2.17;;
11646;SDS011;5880;52.342;9.662;2023-02-28T15:53:47;3.10;;;2.27;;
11646;SDS011;5880;52.342;9.662;2023-02-28T15:56:25;2.60;;;2.00;;
11646;SDS011;5880;52.342;9.662;2023-02-28T15:58:55;2.60;;;2.13;;
11646;SDS011;5880;52.342;9.662;2023-02-28T16:01:25;2.80;;;2.00;;
11646;SDS011;5880;52.342;9.662;2023-02-28T16:03:59;2.40;;;2.17;;
11646;SDS011;5880;52.342;9.662;2023-02-28T16:06:33;3.47;;;2.43;;
11646;SDS011;5880;52.342;9.662;2023-02-28T16:09:14;3.77;;;2.40;;
11646;SDS011;5880;52.342;9.662;2023-02-28T16:11:48;3.30;;;2.37;;
11646;SDS011;5880;52.342;9.662;2023-02-28T16:14:20;3.00;;;2.30;;
11646;SDS011;5880;52.342;9.662;2023-02-28T16:16:49;4.07;;;2.53;;
11646;SDS011;5880;52.342;9.662;2023-02-28T16:19:21;4.13;;;2.33;;
11646;SDS011;5880;52.342;9.662;2023-02-28T16:21:47;3.03;;;2.30;;
11646;SDS011;5880;52.342;9.662;2023-02-28T16:24:14;3.50;;;2.30;;
11646;SDS011;5880;52.342;9.662;2023-02-28T16:26:40;3.37;;;2.57;;
11646;SDS011;5880;52.342;9.662;2023-02-28T16:29:12;2.57;;;2.27;;
11646;SDS011;5880;52.342;9.662;2023-02-28T16:31:49;2.70;;;2.10;;
11646;SDS011;5880;52.342;9.662;2023-02-28T16:34:15;4.47;;;2.40;;
11646;SDS011;5880;52.342;9.662;2023-02-28T16:36:41;3.20;;;2.60;;
11646;SDS011;5880;52.342;9.662;2023-02-28T16:39:06;3.03;;;2.50;;
11646;SDS011;5880;52.342;9.662;2023-02-28T16:41:32;2.60;;;2.10;;
11646;SDS011;5880;52.342;9.662;2023-02-28T16:43:59;3.17;;;2.60;;
11646;SDS011;5880;52.342;9.662;2023-02-28T16:46:33;2.37;;;2.17;;
11646;SDS011;5880;52.342;9.662;2023-02-28T16:48:59;4.47;;;2.83;;
11646;SDS011;5880;52.342;9.662;2023-02-28T16:51:25;3.87;;;2.70;;
11646;SDS011;5880;52.342;9.662;2023-02-28T16:53:51;3.20;;;2.50;;
11646;SDS011;5880;52.342;9.662;2023-02-28T16:56:18;2.60;;;2.23;;
11646;SDS011;5880;52.342;9.662;2023-02-28T16:58:47;3.57;;;2.50;;
11646;SDS011;5880;52.342;9.662;2023-02-28T17:01:14;2.97;;;2.40;;
11646;SDS011;5880;52.342;9.662;2023-02-28T17:03:41;3.00;;;2.20;;
11646;SDS011;5880;52.342;9.662;2023-02-28T17:06:17;4.37;;;2.93;;
11646;SDS011;5880;52.342;9.662;2023-02-28T17:08:54;4.63;;;2.67;;
11646;SDS011;5880;52.342;9.662;2023-02-28T17:11:22;3.00;;;2.67;;
11646;SDS011;5880;52.342;9.662;2023-02-28T17:13:47;3.93;;;2.50;;
11646;SDS011;5880;52.342;9.662;2023-02-28T17:16:17;2.80;;;2.50;;
11646;SDS011;5880;52.342;9.662;2023-02-28T17:18:59;2.90;;;2.40;;
11646;SDS011;5880;52.342;9.662;2023-02-28T17:21:28;2.60;;;2.40;;
11646;SDS011;5880;52.342;9.662;2023-02-28T17:23:54;3.40;;;2.47;;
11646;SDS011;5880;52.342;9.662;2023-02-28T17:26:21;4.23;;;3.00;;
11646;SDS011;5880;52.342;9.662;2023-02-28T17:28:51;3.40;;;3.00;;
11646;SDS011;5880;52.342;9.662;2023-02-28T17:31:18;3.93;;;3.00;;
11646;SDS011;5880;52.342;9.662;2023-02-28T17:33:44;4.50;;;3.27;;
11646;SDS011;5880;52.342;9.662;2023-02-28T17:36:12;4.73;;;3.50;;
11646;SDS011;5880;52.342;9.662;2023-02-28T17:38:41;4.53;;;3.23;;
11646;SDS011;5880;52.342;9.662;2023-02-28T17:41:10;4.63;;;3.53;;
11646;SDS011;5880;52.342;9.662;2023-02-28T17:43:38;4.60;;;3.87;;
11646;SDS011;5880;52.342;9.662;2023-02-28T17:46:04;5.07;;;3.83;;
11646;SDS011;5880;52.342;9.662;2023-02-28T17:48:32;4.57;;;3.73;;
11646;SDS011;5880;52.342;9.662;2023-02-28T17:51:00;5.47;;;4.00;;
11646;SDS011;5880;52.342;9.662;2023-02-28T17:53:26;4.90;;;3.83;;
11646;SDS011;5880;52.342;9.662;2023-02-28T17:55:52;4.53;;;3.70;;
11646;SDS011;5880;52.342;9.662;2023-02-28T17:58:17;4.70;;;3.77;;
11646;SDS011;5880;52.342;9.662;2023-02-28T18:00:43;4.43;;;3.63;;
11646;SDS011;5880;52.342;9.662;2023-02-28T18:03:11;4.87;;;4.30;;